Time;durP1;ratioP1;P1;durP2;ratioP2;P2;SDS_P1;SDS_P2;PMS_P1;PMS_P2;Temp;Humidity;BMP_temperature;BMP_pressure;BME280_temperature;BME280_humidity;BME280_pressure;Samples;Min_cycle;Max_cycle;Signal;HPM_P1;HPM_P2
2022/08/10 00:00:55;;;;;;;;;;;;;;;22.84;56.57;102488.06;1037681;28;661;-66
2022/08/10 00:01:46;;;;;;;;;;;;;;;22.84;56.45;102485.34;1036528;28;657;-66
2022/08/10 00:02:36;;;;;;;;;;;;;;;22.84;56.12;102488.06;1035482;28;678;-67
2022/08/10 00:03:27;;;;;;;;;;;;;;;22.84;56.20;102482.63;1036663;28;629;-66
2022/08/10 00:04:17;;;;;;;;;;;;;;;22.84;56.57;102485.34;1036675;28;685;-67
2022/08/10 00:05:07;;;;;;;;;;;;;;;22.84;56.51;102488.06;1036472;28;682;-66
2022/08/10 00:05:58;;;;;;;;;;;;;;;22.83;56.29;102491.78;1036449;28;654;-66
2022/08/10 00:06:48;;;;;;;;;;;;;;;22.83;56.51;102486.34;1036455;28;665;-67
2022/08/10 00:07:39;;;;;;;;;;;;;;;22.81;56.40;102491.91;1035357;28;616;-67
2022/08/10 00:08:29;;;;;;;;;;;;;;;22.82;56.47;102487.34;1036481;28;532;-67
2022/08/10 00:09:20;;;;;;;;;;;;;;;22.80;56.36;102489.31;1036464;28;623;-68
2022/08/10 00:10:10;;;;;;;;;;;;;;;22.80;56.57;102489.31;1036531;28;706;-68
2022/08/10 00:11:00;;;;;;;;;;;;;;;22.79;56.67;102495.75;1036467;28;643;-67
2022/08/10 00:11:51;;;;;;;;;;;;;;;22.79;56.42;102491.19;1035425;28;714;-68
2022/08/10 00:12:42;;;;;;;;;;;;;;;22.79;56.27;102495.75;1035495;28;794;-67
2022/08/10 00:13:32;;;;;;;;;;;;;;;22.78;56.63;102494.03;1035807;28;702;-67
2022/08/10 00:14:22;;;;;;;;;;;;;;;22.78;56.52;102494.03;1037005;28;646;-68
2022/08/10 00:15:13;;;;;;;;;;;;;;;22.79;56.22;102490.31;1036526;28;701;-67
2022/08/10 00:16:03;;;;;;;;;;;;;;;22.79;56.54;102495.75;1034341;28;1213;-67
2022/08/10 00:16:54;;;;;;;;;;;;;;;22.79;56.35;102493.03;1034897;28;677;-67
2022/08/10 00:17:44;;;;;;;;;;;;;;;22.77;56.35;102495.03;1034777;28;681;-67
2022/08/10 00:18:35;;;;;;;;;;;;;;;22.77;56.55;102490.47;1034504;28;638;-66
2022/08/10 00:19:25;;;;;;;;;;;;;;;22.78;56.17;102494.03;1034705;28;1910;-66
2022/08/10 00:20:15;;;;;;;;;;;;;;;22.76;56.17;102494.16;1034946;28;674;-66
2022/08/10 00:21:06;;;;;;;;;;;;;;;22.74;56.22;102498.88;1034929;28;704;-66
2022/08/10 00:21:56;;;;;;;;;;;;;;;22.74;56.29;102498.03;1034716;28;689;-67
2022/08/10 00:22:47;;;;;;;;;;;;;;;22.73;56.70;102490.88;1034046;28;670;-66
2022/08/10 00:23:37;;;;;;;;;;;;;;;22.74;56.13;102498.88;1033871;28;690;-66
2022/08/10 00:24:27;;;;;;;;;;;;;;;22.72;56.09;102495.44;1034573;28;622;-66
2022/08/10 00:25:18;;;;;;;;;;;;;;;22.73;56.32;102496.31;1033967;28;690;-66
2022/08/10 00:26:08;;;;;;;;;;;;;;;22.73;56.30;102490.88;1033927;28;720;-66
2022/08/10 00:26:59;;;;;;;;;;;;;;;22.72;56.60;102492.72;1033256;28;669;-66
2022/08/10 00:27:49;;;;;;;;;;;;;;;22.69;56.34;102494.84;1034936;28;640;-66
2022/08/10 00:28:40;;;;;;;;;;;;;;;22.72;56.21;102494.59;1034740;28;685;-66
2022/08/10 00:29:30;;;;;;;;;;;;;;;22.71;56.66;102488.28;1035003;28;669;-66
2022/08/10 00:30:21;;;;;;;;;;;;;;;22.72;56.28;102494.59;1034826;28;686;-66
2022/08/10 00:31:11;;;;;;;;;;;;;;;22.69;56.50;102498.44;1034830;28;649;-66
2022/08/10 00:32:01;;;;;;;;;;;;;;;22.67;56.46;102480.53;1034639;28;626;-66
2022/08/10 00:32:52;;;;;;;;;;;;;;;22.68;56.31;102484.97;1033671;28;788;-67
2022/08/10 00:33:42;;;;;;;;;;;;;;;22.67;56.24;102485.97;1033831;28;572;-67
2022/08/10 00:34:33;;;;;;;;;;;;;;;22.68;56.55;102487.69;1034919;28;716;-67
2022/08/10 00:35:24;;;;;;;;;;;;;;;22.66;56.32;102478.81;1034250;28;570;-67
2022/08/10 00:36:14;;;;;;;;;;;;;;;22.65;56.35;102480.69;1034794;28;732;-67
2022/08/10 00:37:04;;;;;;;;;;;;;;;22.66;56.28;102482.41;1034888;28;638;-67
2022/08/10 00:37:55;;;;;;;;;;;;;;;22.65;56.25;102479.81;1034819;28;696;-67
2022/08/10 00:38:45;;;;;;;;;;;;;;;22.66;56.27;102479.69;1034978;28;716;-67
2022/08/10 00:39:36;;;;;;;;;;;;;;;22.66;56.11;102478.81;1034779;28;629;-67
2022/08/10 00:40:26;;;;;;;;;;;;;;;22.65;56.32;102483.38;1034775;28;661;-67
2022/08/10 00:41:17;;;;;;;;;;;;;;;22.64;56.71;102478.09;1034769;28;637;-67
2022/08/10 00:42:07;;;;;;;;;;;;;;;;;;1034757;28;665;-67
2022/08/10 00:42:58;;;;;;;;;;;;;;;22.61;56.44;102481.94;1034898;28;681;-67
2022/08/10 00:43:48;;;;;;;;;;;;;;;22.60;56.75;102476.66;1034474;28;685;-66
2022/08/10 00:44:38;;;;;;;;;;;;;;;22.60;56.73;102473.94;1034014;28;605;-67
2022/08/10 00:45:29;;;;;;;;;;;;;;;22.60;56.68;102468.50;1029353;28;626;-66
2022/08/10 00:46:19;;;;;;;;;;;;;;;22.59;56.75;102472.19;1031169;28;699;-66
2022/08/10 00:47:10;;;;;;;;;;;;;;;22.58;56.36;102473.19;1033401;28;634;-67
2022/08/10 00:48:00;;;;;;;;;;;;;;;22.58;56.33;102471.34;1034505;28;669;-66
2022/08/10 00:48:50;;;;;;;;;;;;;;;22.60;56.58;102471.22;1033701;28;677;-66
2022/08/10 00:49:41;;;;;;;;;;;;;;;22.59;56.31;102473.06;1034713;28;685;-66
2022/08/10 00:50:31;;;;;;;;;;;;;;;22.59;56.53;102477.63;1034850;28;635;-67
2022/08/10 00:51:22;;;;;;;;;;;;;;;22.58;56.21;102475.91;1034715;28;677;-67
2022/08/10 00:52:12;;;;;;;;;;;;;;;22.56;56.28;102469.78;1034757;28;657;-66
2022/08/10 00:53:03;;;;;;;;;;;;;;;22.57;56.41;102471.50;1034779;28;894;-66
2022/08/10 00:53:53;;;;;;;;;;;;;;;22.58;56.61;102475.91;1034682;28;634;-66
2022/08/10 00:54:43;;;;;;;;;;;;;;;22.58;56.66;102473.19;1034827;28;1049;-66
2022/08/10 00:55:34;;;;;;;;;;;;;;;22.56;56.45;102477.94;1034624;28;673;-66
2022/08/10 00:56:25;;;;;;;;;;;;;;;22.56;56.70;102480.66;1034773;28;619;-67
2022/08/10 00:57:15;;;;;;;;;;;;;;;22.56;56.31;102475.22;1034700;28;641;-66
2022/08/10 00:58:05;;;;;;;;;;;;;;;22.54;56.68;102469.06;1034843;28;701;-68
2022/08/10 00:58:56;;;;;;;;;;;;;;;22.55;56.65;102476.22;1034718;28;681;-67
2022/08/10 00:59:46;;;;;;;;;;;;;;;22.55;56.37;102477.09;1034773;28;643;-67
2022/08/10 01:00:38;;;;;;;;;;;;;;;22.54;56.31;102472.66;1034443;28;629;-67
2022/08/10 01:01:28;;;;;;;;;;;;;;;22.53;56.79;102470.91;1033908;28;775;-67
2022/08/10 01:02:19;;;;;;;;;;;;;;;22.53;56.59;102473.63;1033182;28;642;-67
2022/08/10 01:03:09;;;;;;;;;;;;;;;22.52;56.47;102467.34;1034641;28;744;-67
2022/08/10 01:04:01;;;;;;;;;;;;;;;22.52;56.44;102466.47;1034782;28;718;-67
2022/08/10 01:04:51;;;;;;;;;;;;;;;22.51;56.83;102471.06;1034098;28;749;-67
2022/08/10 01:05:42;;;;;;;;;;;;;;;22.50;56.78;102468.47;1034793;28;682;-67
2022/08/10 01:06:32;;;;;;;;;;;;;;;22.49;56.70;102470.31;1034668;28;748;-67
2022/08/10 01:07:22;;;;;;;;;;;;;;;22.50;56.65;102463.91;1034827;28;694;-67
2022/08/10 01:08:13;;;;;;;;;;;;;;;22.50;56.42;102466.63;1034728;28;666;-67
2022/08/10 01:09:03;;;;;;;;;;;;;;;22.48;56.75;102465.88;1034378;28;1131;-67
2022/08/10 01:09:54;;;;;;;;;;;;;;;22.46;56.73;102462.44;1032422;28;649;-67
2022/08/10 01:10:44;;;;;;;;;;;;;;;22.46;56.54;102467.03;1033358;28;642;-67
2022/08/10 01:11:34;;;;;;;;;;;;;;;22.47;56.40;102463.31;1033177;28;638;-67
2022/08/10 01:12:25;;;;;;;;;;;;;;;22.45;56.64;102474.31;1029815;28;732;-67
2022/08/10 01:13:15;;;;;;;;;;;;;;;22.46;56.53;102467.03;1031154;28;697;-67
2022/08/10 01:14:06;;;;;;;;;;;;;;;22.44;56.66;102469.88;1034685;28;638;-67
2022/08/10 01:14:56;;;;;;;;;;;;;;;22.46;56.70;102467.03;1032574;28;647;-67
2022/08/10 01:15:47;;;;;;;;;;;;;;;22.46;56.84;102467.88;1032781;28;1213;-67
2022/08/10 01:16:37;;;;;;;;;;;;;;;22.44;56.69;102469.00;1037081;28;646;-67
2022/08/10 01:17:27;;;;;;;;;;;;;;;22.42;56.70;102466.44;1037883;28;685;-67
2022/08/10 01:18:18;;;;;;;;;;;;;;;22.45;56.48;102471.59;1037833;28;713;-67
2022/08/10 01:19:08;;;;;;;;;;;;;;;22.44;56.42;102474.44;1037052;28;1925;-67
2022/08/10 01:19:59;;;;;;;;;;;;;;;22.43;56.81;102473.59;1037622;28;626;-66
2022/08/10 01:20:49;;;;;;;;;;;;;;;22.43;56.68;102470.88;1037502;28;635;-67
2022/08/10 01:21:40;;;;;;;;;;;;;;;22.43;56.53;102467.28;1037524;28;633;-67
2022/08/10 01:22:30;;;;;;;;;;;;;;;22.42;56.55;102471.88;1037567;28;705;-67
2022/08/10 01:23:20;;;;;;;;;;;;;;;22.43;56.47;102465.44;1037571;28;618;-66
2022/08/10 01:24:11;;;;;;;;;;;;;;;22.43;56.42;102457.28;1037606;28;797;-67
2022/08/10 01:25:01;;;;;;;;;;;;;;;22.41;56.57;102463.84;1037484;28;650;-67
2022/08/10 01:25:53;;;;;;;;;;;;;;;22.42;56.64;102460.13;1037534;28;642;-66
2022/08/10 01:26:44;;;;;;;;;;;;;;;22.41;56.93;102461.13;1036616;28;710;-66
2022/08/10 01:27:34;;;;;;;;;;;;;;;22.41;56.69;102464.72;1037505;28;646;-66
2022/08/10 01:28:25;;;;;;;;;;;;;;;22.41;56.53;102459.28;1037840;28;705;-66
2022/08/10 01:29:16;;;;;;;;;;;;;;;22.40;56.48;102460.28;1037330;28;700;-67
2022/08/10 01:30:06;;;;;;;;;;;;;;;22.38;56.38;102456.84;1037066;28;650;-66
2022/08/10 01:30:57;;;;;;;;;;;;;;;22.38;56.53;102453.28;1037127;28;677;-66
2022/08/10 01:31:47;;;;;;;;;;;;;;;22.40;56.39;102457.56;1037541;28;654;-66
2022/08/10 01:32:38;;;;;;;;;;;;;;;22.37;56.81;102457.84;1037481;28;702;-67
2022/08/10 01:33:28;;;;;;;;;;;;;;;22.40;56.90;102462.13;1037435;28;689;-68
2022/08/10 01:34:18;;;;;;;;;;;;;;;22.38;56.80;102461.44;1037536;28;734;-68
2022/08/10 01:35:09;;;;;;;;;;;;;;;22.36;56.73;102461.56;1037506;28;747;-68
2022/08/10 01:35:59;;;;;;;;;;;;;;;22.37;56.40;102457.84;1037824;28;630;-67
2022/08/10 01:36:50;;;;;;;;;;;;;;;22.35;56.41;102458.97;1037264;28;717;-68
2022/08/10 01:37:40;;;;;;;;;;;;;;;22.35;56.59;102456.28;1037089;28;678;-67
2022/08/10 01:38:31;;;;;;;;;;;;;;;22.36;56.78;102458.84;1037597;28;635;-67
2022/08/10 01:39:21;;;;;;;;;;;;;;;22.35;56.75;102454.41;1037696;28;1953;-68
2022/08/10 01:40:12;;;;;;;;;;;;;;;22.33;56.80;102455.53;1037869;28;701;-67
2022/08/10 01:41:03;;;;;;;;;;;;;;;22.35;56.65;102462.56;1036910;28;653;-68
2022/08/10 01:41:53;;;;;;;;;;;;;;;22.34;56.61;102457.25;1037619;28;646;-67
2022/08/10 01:42:44;;;;;;;;;;;;;;;22.34;56.62;102463.56;1036894;28;650;-67
2022/08/10 01:43:34;;;;;;;;;;;;;;;22.32;56.71;102460.13;1037443;28;661;-68
2022/08/10 01:44:25;;;;;;;;;;;;;;;22.32;56.71;102459.25;1037557;28;677;-68
2022/08/10 01:45:15;;;;;;;;;;;;;;;22.33;56.56;102459.13;1037628;28;685;-68
2022/08/10 01:46:06;;;;;;;;;;;;;;;22.34;56.60;102457.25;1037228;28;638;-67
2022/08/10 01:48:27;;;;;;;;;;;;;;;22.33;56.92;102460.97;1033155;28;684;-67
2022/08/10 01:49:16;;;;;;;;;;;;;;;22.28;56.48;102458.66;1036436;28;654;-67
2022/08/10 01:50:06;;;;;;;;;;;;;;;22.29;56.46;102452.22;1037508;28;682;-68
2022/08/10 01:50:57;;;;;;;;;;;;;;;22.29;56.56;102456.81;1036883;28;909;-67
2022/08/10 01:51:47;;;;;;;;;;;;;;;22.30;56.74;102459.38;1037373;28;634;-66
2022/08/10 01:52:38;;;;;;;;;;;;;;;22.27;56.53;102462.38;1037428;28;638;-67
2022/08/10 01:53:29;;;;;;;;;;;;;;;22.27;56.78;102451.50;1036986;28;709;-66
2022/08/10 01:54:19;;;;;;;;;;;;;;;22.27;56.68;102459.66;1037433;28;642;-66
2022/08/10 01:55:10;;;;;;;;;;;;;;;22.28;56.63;102455.09;1037480;28;669;-67
2022/08/10 01:56:00;;;;;;;;;;;;;;;22.27;56.72;102456.94;1037388;28;689;-67
2022/08/10 01:56:51;;;;;;;;;;;;;;;22.28;56.91;102452.38;1037435;28;693;-66
2022/08/10 01:57:41;;;;;;;;;;;;;;;22.27;56.58;102450.66;1037469;28;642;-66
2022/08/10 01:58:31;;;;;;;;;;;;;;;22.25;56.89;102455.34;1037436;28;638;-66
2022/08/10 01:59:22;;;;;;;;;;;;;;;22.25;57.07;102452.63;1037421;28;1890;-66
2022/08/10 02:00:13;;;;;;;;;;;;;;;22.26;56.94;102457.94;1036931;28;681;-67
2022/08/10 02:01:03;;;;;;;;;;;;;;;22.24;56.89;102457.22;1036933;28;725;-66
2022/08/10 02:01:54;;;;;;;;;;;;;;;22.20;56.90;102461.22;1037845;28;645;-67
2022/08/10 02:02:45;;;;;;;;;;;;;;;22.23;56.68;102454.63;1037157;28;665;-66
2022/08/10 02:03:35;;;;;;;;;;;;;;;22.22;56.94;102451.03;1036835;28;614;-66
2022/08/10 02:04:26;;;;;;;;;;;;;;;22.24;56.76;102459.91;1037425;28;693;-67
2022/08/10 02:05:16;;;;;;;;;;;;;;;22.22;56.80;102453.75;1037726;28;664;-66
2022/08/10 02:06:07;;;;;;;;;;;;;;;22.22;57.03;102451.03;1037099;28;642;-66
2022/08/10 02:06:57;;;;;;;;;;;;;;;22.23;56.96;102452.78;1036949;28;674;-66
2022/08/10 02:07:48;;;;;;;;;;;;;;;22.22;56.55;102450.19;1037368;28;670;-66
2022/08/10 02:08:38;;;;;;;;;;;;;;;22.17;57.05;102450.63;1037339;28;693;-67
2022/08/10 02:09:28;;;;;;;;;;;;;;;22.19;56.65;102448.63;1033954;28;888;-66
2022/08/10 02:10:19;;;;;;;;;;;;;;;22.21;56.96;102453.94;1032816;28;622;-66
2022/08/10 02:11:10;;;;;;;;;;;;;;;22.19;56.70;102451.34;1033345;28;698;-68
2022/08/10 02:12:00;;;;;;;;;;;;;;;22.19;56.72;102445.91;1032840;28;636;-67
2022/08/10 02:12:55;;;;;;;;;;;;;;;22.19;56.57;102447.78;1032621;28;638;-67
2022/08/10 02:13:45;;;;;;;;;;;;;;;22.20;56.71;102446.78;1032804;28;638;-67
2022/08/10 02:14:36;;;;;;;;;;;;;;;22.21;57.02;102449.34;1032432;28;657;-67
2022/08/10 02:15:26;;;;;;;;;;;;;;;22.19;57.06;102447.78;1032870;28;689;-67
2022/08/10 02:16:16;;;;;;;;;;;;;;;22.17;57.06;102445.19;1026169;28;713;-67
2022/08/10 02:17:07;;;;;;;;;;;;;;;22.17;56.67;102451.47;1025622;28;878;-67
2022/08/10 02:17:57;;;;;;;;;;;;;;;22.16;56.71;102448.91;1025460;28;695;-67
2022/08/10 02:18:48;;;;;;;;;;;;;;;22.16;56.75;102449.75;1025841;28;627;-67
2022/08/10 02:19:38;;;;;;;;;;;;;;;22.16;56.85;102447.03;1025926;28;1914;-67
2022/08/10 02:20:29;;;;;;;;;;;;;;;22.15;56.74;102447.19;1025606;28;693;-67
2022/08/10 02:21:19;;;;;;;;;;;;;;;22.14;57.06;102448.16;1025345;28;745;-67
2022/08/10 02:22:09;;;;;;;;;;;;;;;22.15;57.13;102452.59;1025879;28;644;-66
2022/08/10 02:23:00;;;;;;;;;;;;;;;22.15;56.96;102458.03;1025917;28;631;-65
2022/08/10 02:23:50;;;;;;;;;;;;;;;22.14;57.09;102450.88;1025795;28;666;-66
2022/08/10 02:24:41;;;;;;;;;;;;;;;22.13;57.07;102450.03;1025821;28;650;-66
2022/08/10 02:25:31;;;;;;;;;;;;;;;22.14;56.78;102451.75;1025791;28;618;-67
2022/08/10 02:26:21;;;;;;;;;;;;;;;22.14;56.84;102448.16;1025424;28;638;-66
2022/08/10 02:27:12;;;;;;;;;;;;;;;22.13;57.06;102446.44;1025731;28;655;-67
2022/08/10 02:28:02;;;;;;;;;;;;;;;22.11;57.01;102446.59;1025800;28;659;-67
2022/08/10 02:28:53;;;;;;;;;;;;;;;22.12;56.95;102447.44;1025580;28;697;-66
2022/08/10 02:29:43;;;;;;;;;;;;;;;22.11;56.78;102443.00;1025515;28;716;-66
2022/08/10 02:30:34;;;;;;;;;;;;;;;22.09;57.38;102445.00;1025403;28;634;-66
2022/08/10 02:31:24;;;;;;;;;;;;;;;22.09;56.96;102451.28;1025763;28;638;-66
2022/08/10 02:32:14;;;;;;;;;;;;;;;22.09;56.87;102436.84;1025284;28;647;-66
2022/08/10 02:33:05;;;;;;;;;;;;;;;22.09;57.12;102443.13;1025873;28;627;-66
2022/08/10 02:33:55;;;;;;;;;;;;;;;22.08;56.90;102446.84;1025742;28;631;-66
2022/08/10 02:34:46;;;;;;;;;;;;;;;22.07;56.99;102444.25;1025219;28;697;-67
2022/08/10 02:35:36;;;;;;;;;;;;;;;22.09;57.26;102439.56;1025111;28;669;-67
2022/08/10 02:36:26;;;;;;;;;;;;;;;22.07;57.03;102447.84;1025250;28;627;-67
2022/08/10 02:37:17;;;;;;;;;;;;;;;22.07;57.01;102449.69;1025834;28;660;-69
2022/08/10 02:38:07;;;;;;;;;;;;;;;22.07;57.17;102442.41;1024879;28;603;-67
2022/08/10 02:38:58;;;;;;;;;;;;;;;22.07;57.26;102441.56;1025770;28;813;-67
2022/08/10 02:39:48;;;;;;;;;;;;;;;22.07;57.12;102436.13;1025681;28;646;-68
2022/08/10 02:40:39;;;;;;;;;;;;;;;22.07;56.92;102446.97;1025746;28;634;-67
2022/08/10 02:41:29;;;;;;;;;;;;;;;22.07;56.86;102438.84;1025752;28;721;-67
2022/08/10 02:42:20;;;;;;;;;;;;;;;22.06;56.81;102446.13;1025839;28;681;-67
2022/08/10 02:43:10;;;;;;;;;;;;;;;22.05;57.39;102443.53;1025819;28;721;-67
2022/08/10 02:44:00;;;;;;;;;;;;;;;22.04;57.06;102439.09;1025140;28;635;-67
2022/08/10 02:44:51;;;;;;;;;;;;;;;22.04;56.93;102436.38;1025701;28;648;-67
2022/08/10 02:45:41;;;;;;;;;;;;;;;22.04;56.94;102437.25;1025799;28;682;-67
2022/08/10 02:46:32;;;;;;;;;;;;;;;22.06;57.14;102442.53;1026124;28;708;-67
2022/08/10 02:47:22;;;;;;;;;;;;;;;22.04;57.17;102441.81;1025433;28;623;-67
2022/08/10 02:48:13;;;;;;;;;;;;;;;22.03;57.21;102437.41;1025250;28;619;-67
2022/08/10 02:49:03;;;;;;;;;;;;;;;22.01;56.98;102436.69;1025708;28;605;-67
2022/08/10 02:49:53;;;;;;;;;;;;;;;22.01;56.93;102434.81;1025136;28;636;-67
2022/08/10 02:50:44;;;;;;;;;;;;;;;22.00;57.16;102437.69;1025859;28;668;-67
2022/08/10 02:51:35;;;;;;;;;;;;;;;22.00;56.97;102437.69;1025706;28;693;-67
2022/08/10 02:52:25;;;;;;;;;;;;;;;21.99;57.29;102435.91;1025756;28;686;-66
2022/08/10 02:53:16;;;;;;;;;;;;;;;21.99;57.25;102444.06;1025770;28;663;-67
2022/08/10 02:54:07;;;;;;;;;;;;;;;22.00;57.29;102443.09;1025698;28;713;-67
2022/08/10 02:54:57;;;;;;;;;;;;;;;22.01;56.89;102436.69;1025819;28;665;-67
2022/08/10 02:55:47;;;;;;;;;;;;;;;22.00;57.12;102435.81;1025169;28;667;-67
2022/08/10 02:56:38;;;;;;;;;;;;;;;21.99;57.30;102435.91;1025680;28;659;-67
2022/08/10 02:57:28;;;;;;;;;;;;;;;21.98;57.04;102435.06;1025716;28;639;-67
2022/08/10 02:58:19;;;;;;;;;;;;;;;21.97;57.68;102432.47;1025621;28;682;-67
2022/08/10 02:59:09;;;;;;;;;;;;;;;21.97;57.33;102435.19;1025364;28;667;-68
2022/08/10 03:00:00;;;;;;;;;;;;;;;21.96;57.25;102436.19;1025251;28;631;-68
2022/08/10 03:00:50;;;;;;;;;;;;;;;21.94;57.26;102430.03;1025594;28;720;-68
2022/08/10 03:01:41;;;;;;;;;;;;;;;21.94;57.07;102433.59;1025703;28;660;-67
2022/08/10 03:02:33;;;;;;;;;;;;;;;21.96;56.99;102431.63;1025691;28;697;-68
2022/08/10 03:03:23;;;;;;;;;;;;;;;21.96;57.05;102430.75;1025694;28;627;-68
2022/08/10 03:04:13;;;;;;;;;;;;;;;21.94;57.28;102428.16;1025157;28;690;-67
2022/08/10 03:05:04;;;;;;;;;;;;;;;21.93;57.13;102429.16;1025610;28;658;-67
2022/08/10 03:05:54;;;;;;;;;;;;;;;21.94;57.23;102421.88;1025667;28;674;-67
2022/08/10 03:06:45;;;;;;;;;;;;;;;21.94;56.88;102424.59;1025696;28;670;-67
2022/08/10 03:07:35;;;;;;;;;;;;;;;21.92;57.32;102434.72;1025681;28;658;-67
2022/08/10 03:08:26;;;;;;;;;;;;;;;21.92;57.30;102427.44;1025132;28;713;-67
2022/08/10 03:09:16;;;;;;;;;;;;;;;21.92;57.19;102432.00;1029312;28;1120;-67
2022/08/10 03:10:07;;;;;;;;;;;;;;;21.91;57.22;102428.44;1029327;28;643;-67
2022/08/10 03:10:57;;;;;;;;;;;;;;;21.93;57.18;102428.31;1028710;28;713;-67
2022/08/10 03:11:48;;;;;;;;;;;;;;;21.91;57.16;102428.44;1029036;28;637;-67
2022/08/10 03:12:38;;;;;;;;;;;;;;;21.92;57.36;102429.28;1028700;28;681;-68
2022/08/10 03:13:29;;;;;;;;;;;;;;;21.89;57.43;102426.84;1028976;28;721;-67
2022/08/10 03:14:19;;;;;;;;;;;;;;;21.89;57.37;102425.00;1029133;28;694;-67
2022/08/10 03:15:09;;;;;;;;;;;;;;;21.90;57.29;102425.84;1029057;28;722;-67
2022/08/10 03:16:00;;;;;;;;;;;;;;;21.89;57.32;102429.56;1033498;28;1218;-67
2022/08/10 03:16:50;;;;;;;;;;;;;;;21.86;57.49;102433.41;1035860;28;658;-68
2022/08/10 03:17:41;;;;;;;;;;;;;;;21.86;57.39;102429.81;1036831;28;748;-67
2022/08/10 03:18:31;;;;;;;;;;;;;;;21.87;57.32;102431.53;1037190;28;622;-68
2022/08/10 03:19:22;;;;;;;;;;;;;;;21.88;57.50;102425.13;1036557;28;1965;-67
2022/08/10 03:20:12;;;;;;;;;;;;;;;21.88;57.40;102433.28;1036587;28;606;-67
2022/08/10 03:21:03;;;;;;;;;;;;;;;21.89;57.33;102435.00;1036513;28;645;-67
2022/08/10 03:21:53;;;;;;;;;;;;;;;21.90;57.45;102432.16;1036634;28;622;-67
2022/08/10 03:22:43;;;;;;;;;;;;;;;21.87;57.32;102421.53;1036625;28;668;-68
2022/08/10 03:23:34;;;;;;;;;;;;;;;21.89;57.21;102429.56;1036471;28;709;-67
2022/08/10 03:24:24;;;;;;;;;;;;;;;21.88;57.17;102425.13;1036652;28;646;-67
2022/08/10 03:25:15;;;;;;;;;;;;;;;21.86;57.43;102427.09;1036525;28;693;-67
2022/08/10 03:26:05;;;;;;;;;;;;;;;21.82;57.45;102424.69;1036584;28;693;-67
2022/08/10 03:26:56;;;;;;;;;;;;;;;21.85;57.41;102430.84;1035171;28;627;-67
2022/08/10 03:27:46;;;;;;;;;;;;;;;21.82;57.36;102427.41;1036800;28;728;-67
2022/08/10 03:28:37;;;;;;;;;;;;;;;21.84;57.35;102424.56;1037118;28;654;-67
2022/08/10 03:29:27;;;;;;;;;;;;;;;21.85;57.43;102422.72;1036609;28;634;-67
2022/08/10 03:30:17;;;;;;;;;;;;;;;21.83;57.34;102428.25;1036679;28;705;-67
2022/08/10 03:31:08;;;;;;;;;;;;;;;21.83;57.48;102425.56;1036547;28;623;-67
2022/08/10 03:31:58;;;;;;;;;;;;;;;21.81;57.70;102425.69;1036580;28;706;-67
2022/08/10 03:32:49;;;;;;;;;;;;;;;21.82;57.39;102421.97;1036515;28;674;-67
2022/08/10 03:33:39;;;;;;;;;;;;;;;21.81;57.63;102422.97;1035617;28;666;-68
2022/08/10 03:34:30;;;;;;;;;;;;;;;21.80;57.55;102423.97;1036524;28;655;-67
2022/08/10 03:35:20;;;;;;;;;;;;;;;21.78;57.13;102420.50;1036574;28;705;-68
2022/08/10 03:36:11;;;;;;;;;;;;;;;21.78;57.37;102423.22;1036472;28;697;-68
2022/08/10 03:37:01;;;;;;;;;;;;;;;21.79;57.35;102418.66;1036597;28;610;-67
2022/08/10 03:37:52;;;;;;;;;;;;;;;21.77;57.45;102416.09;1035271;28;668;-68
2022/08/10 03:38:44;;;;;;;;;;;;;;;21.78;57.60;102422.38;1036600;28;678;-67
2022/08/10 03:39:35;;;;;;;;;;;;;;;21.77;57.45;102426.94;1036532;28;1894;-67
2022/08/10 03:40:25;;;;;;;;;;;;;;;21.77;58.01;102420.66;1035599;28;679;-67
2022/08/10 03:41:16;;;;;;;;;;;;;;;21.78;57.44;102423.22;1035235;28;665;-67
2022/08/10 03:42:07;;;;;;;;;;;;;;;21.79;57.50;102413.22;1036591;28;677;-67
2022/08/10 03:42:58;;;;;;;;;;;;;;;21.77;57.35;102416.09;1035399;28;710;-68
2022/08/10 03:43:48;;;;;;;;;;;;;;;21.78;57.37;102412.38;1036574;28;662;-68
2022/08/10 03:44:39;;;;;;;;;;;;;;;21.75;57.45;102415.34;1036424;28;720;-67
2022/08/10 03:45:29;;;;;;;;;;;;;;;21.78;57.31;102406.09;1035439;28;678;-67
2022/08/10 03:46:19;;;;;;;;;;;;;;;21.78;57.41;102416.94;1036462;28;690;-67
2022/08/10 03:47:10;;;;;;;;;;;;;;;21.76;57.52;102408.94;1036614;28;666;-67
2022/08/10 03:48:00;;;;;;;;;;;;;;;21.76;57.36;102413.50;1035868;28;658;-66
2022/08/10 03:48:51;;;;;;;;;;;;;;;21.76;57.50;102413.50;1036803;28;638;-66
2022/08/10 03:49:42;;;;;;;;;;;;;;;21.74;57.50;102408.19;1035711;28;655;-68
2022/08/10 03:50:32;;;;;;;;;;;;;;;21.73;57.45;102414.63;1037316;28;615;-65
2022/08/10 03:51:23;;;;;;;;;;;;;;;21.74;57.55;102418.19;1037478;28;653;-66
2022/08/10 03:52:13;;;;;;;;;;;;;;;21.73;57.55;102411.91;1036190;28;778;-66
2022/08/10 03:53:03;;;;;;;;;;;;;;;21.74;57.54;102405.50;1037319;28;689;-67
2022/08/10 03:53:54;;;;;;;;;;;;;;;21.73;57.42;102411.91;1037345;28;642;-66
2022/08/10 03:54:44;;;;;;;;;;;;;;;21.71;57.75;102408.47;1037396;28;718;-66
2022/08/10 03:55:35;;;;;;;;;;;;;;;21.72;57.65;102412.91;1037324;28;698;-66
2022/08/10 03:56:25;;;;;;;;;;;;;;;21.73;57.61;102408.34;1036308;28;667;-67
2022/08/10 03:57:16;;;;;;;;;;;;;;;21.73;57.50;102411.91;1037250;28;706;-66
2022/08/10 03:58:06;;;;;;;;;;;;;;;21.72;57.39;102407.47;1037447;28;689;-66
2022/08/10 03:58:57;;;;;;;;;;;;;;;21.70;57.53;102408.59;1037182;28;686;-67
2022/08/10 03:59:47;;;;;;;;;;;;;;;21.70;57.50;102414.88;1037468;28;678;-67
2022/08/10 04:00:37;;;;;;;;;;;;;;;21.69;57.66;102410.44;1037427;28;690;-68
2022/08/10 04:01:28;;;;;;;;;;;;;;;21.70;57.65;102408.59;1037322;28;631;-67
2022/08/10 04:02:18;;;;;;;;;;;;;;;21.71;57.50;102410.31;1037360;28;662;-68
2022/08/10 04:03:09;;;;;;;;;;;;;;;21.70;57.64;102414.88;1037196;28;576;-67
2022/08/10 04:03:59;;;;;;;;;;;;;;;21.71;57.58;102408.47;1037317;28;685;-67
2022/08/10 04:04:49;;;;;;;;;;;;;;;21.71;57.71;102413.03;1037348;28;690;-67
2022/08/10 04:05:40;;;;;;;;;;;;;;;21.70;57.64;102404.03;1037281;28;690;-67
2022/08/10 04:06:30;;;;;;;;;;;;;;;21.69;57.53;102410.44;1037377;28;630;-67
2022/08/10 04:07:21;;;;;;;;;;;;;;;21.70;57.56;102409.47;1036257;28;714;-67
2022/08/10 04:08:11;;;;;;;;;;;;;;;21.67;57.79;102408.91;1037560;28;689;-67
2022/08/10 04:09:02;;;;;;;;;;;;;;;21.64;57.78;102404.59;1035925;28;1158;-68
2022/08/10 04:09:52;;;;;;;;;;;;;;;21.67;57.69;102409.75;1037399;28;618;-67
2022/08/10 04:10:43;;;;;;;;;;;;;;;21.69;57.60;102405.03;1035546;28;627;-67
2022/08/10 04:11:35;;;;;;;;;;;;;;;21.67;57.67;102404.31;1036370;28;626;-67
2022/08/10 04:12:26;;;;;;;;;;;;;;;21.68;57.53;102407.88;1037521;28;630;-67
2022/08/10 04:13:16;;;;;;;;;;;;;;;21.66;57.47;102399.88;1037866;28;665;-67
2022/08/10 04:14:07;;;;;;;;;;;;;;;21.63;57.91;102405.59;1037195;28;737;-66
2022/08/10 04:14:57;;;;;;;;;;;;;;;21.66;57.64;102393.59;1037387;28;666;-66
2022/08/10 04:15:48;;;;;;;;;;;;;;;21.62;57.75;102403.84;1036577;28;1292;-67
2022/08/10 04:16:38;;;;;;;;;;;;;;;21.64;57.76;102403.72;1034287;28;660;-67
2022/08/10 04:17:29;;;;;;;;;;;;;;;21.66;57.68;102408.03;1034942;28;622;-67
2022/08/10 04:18:19;;;;;;;;;;;;;;;21.64;57.69;102409.16;1034861;28;717;-67
2022/08/10 04:19:10;;;;;;;;;;;;;;;21.65;57.75;102405.44;1035102;28;616;-67
2022/08/10 04:20:00;;;;;;;;;;;;;;;21.58;57.75;102413.25;1034847;28;769;-67
2022/08/10 04:20:50;;;;;;;;;;;;;;;21.62;57.76;102411.13;1034824;28;633;-67
2022/08/10 04:21:41;;;;;;;;;;;;;;;21.61;57.77;102409.41;1034959;28;617;-67
2022/08/10 04:22:31;;;;;;;;;;;;;;;21.60;57.74;102408.56;1034826;28;666;-68
2022/08/10 04:23:22;;;;;;;;;;;;;;;21.58;57.82;102415.97;1034922;28;637;-67
2022/08/10 04:24:12;;;;;;;;;;;;;;;21.60;57.74;102411.28;1034762;28;665;-67
2022/08/10 04:25:03;;;;;;;;;;;;;;;21.61;57.72;102412.13;1034619;28;694;-67
2022/08/10 04:25:54;;;;;;;;;;;;;;;21.59;57.92;102414.97;1034406;28;637;-67
2022/08/10 04:26:44;;;;;;;;;;;;;;;21.59;57.84;102406.84;1034648;28;708;-67
2022/08/10 04:27:34;;;;;;;;;;;;;;;21.58;57.94;102409.69;1033968;28;654;-67
2022/08/10 04:28:25;;;;;;;;;;;;;;;21.58;57.89;102417.81;1033768;28;621;-67